Time;durP1;ratioP1;P1;durP2;ratioP2;P2;SDS_P1;SDS_P2;PMS_P1;PMS_P2;Temp;Humidity;BMP_temperature;BMP_pressure;BME280_temperature;BME280_humidity;BME280_pressure;Samples;Min_cycle;Max_cycle;Signal;HPM_P1;HPM_P2
2022/09/09 00:01:55;;;;;;;9.90;7.35;;;;;;;16.65;84.09;94847.91;5133003;27;20201;-74
2022/09/09 00:04:28;;;;;;;9.77;6.82;;;;;;;16.55;84.48;94853.88;5132173;27;20249;-74
2022/09/09 00:07:05;;;;;;;10.13;7.35;;;;;;;16.52;84.42;94840.97;5132910;27;20407;-74
2022/09/09 00:09:37;;;;;;;10.70;6.95;;;;;;;16.53;84.31;94850.75;5132109;27;20276;-74
2022/09/09 00:12:11;;;;;;;12.82;6.18;;;;;;;16.54;84.29;94846.84;5132478;27;20277;-74
2022/09/09 00:14:45;;;;;;;13.57;7.20;;;;;;;16.65;83.07;94842.44;5131957;27;20790;-73
2022/09/09 00:17:17;;;;;;;8.13;6.15;;;;;;;16.72;82.45;94847.22;5132600;27;20218;-74
2022/09/09 00:19:50;;;;;;;8.82;6.28;;;;;;;16.80;81.92;94843.50;5132153;27;20221;-74
2022/09/09 00:22:20;;;;;;;16.17;6.78;;;;;;;16.71;82.76;94835.50;5132061;27;20189;-74
2022/09/09 00:24:53;;;;;;;11.73;6.18;;;;;;;16.50;83.84;94841.31;5131776;27;20185;-74
2022/09/09 00:27:33;;;;;;;8.98;6.60;;;;;;;16.53;84.51;94824.19;5132022;27;20189;-74
2022/09/09 00:30:13;;;;;;;12.05;7.85;;;;;;;16.58;84.69;94817.63;5132173;27;20204;-74
2022/09/09 00:32:41;;;;;;;12.55;6.88;;;;;;;16.69;84.31;94818.66;5132065;27;20312;-74
2022/09/09 00:35:17;;;;;;;10.20;7.32;;;;;;;16.61;84.60;94819.63;5131497;27;20225;-74
2022/09/09 00:37:48;;;;;;;11.27;7.13;;;;;;;16.55;84.62;94815.59;5132048;27;20181;-74
2022/09/09 00:40:23;;;;;;;9.82;6.95;;;;;;;16.55;84.55;94804.66;5131625;27;20272;-74
2022/09/09 00:42:56;;;;;;;9.95;7.18;;;;;;;16.65;84.21;94810.38;5131685;27;20245;-74
2022/09/09 00:45:41;;;;;;;10.80;7.78;;;;;;;16.61;84.18;94798.56;5131514;27;20520;-74
2022/09/09 00:48:11;;;;;;;11.75;7.95;;;;;;;16.64;84.61;94805.28;5131404;27;20253;-73
2022/09/09 00:50:50;;;;;;;11.85;7.88;;;;;;;16.56;84.37;94800.78;5130838;27;20265;-73
2022/09/09 00:53:38;;;;;;;9.68;7.03;;;;;;;16.49;84.40;94803.38;5131019;27;20238;-74
2022/09/09 00:56:13;;;;;;;11.48;6.70;;;;;;;16.52;84.34;94810.88;5131251;27;20700;-74
2022/09/09 00:58:43;;;;;;;8.40;7.38;;;;;;;16.51;84.16;94803.81;5131032;27;20255;-74
2022/09/09 01:01:13;;;;;;;9.63;7.00;;;;;;;16.35;84.40;94801.94;5131447;27;20655;-74
2022/09/09 01:03:47;;;;;;;9.35;6.25;;;;;;;16.20;84.63;94805.53;5131130;27;20193;-73
2022/09/09 01:06:17;;;;;;;11.25;7.00;;;;;;;15.99;85.16;94800.38;5130880;27;20185;-74
2022/09/09 01:09:16;;;;;;;10.93;7.28;;;;;;;15.79;85.67;94812.44;5131394;27;20528;-73
2022/09/09 01:11:53;;;;;;;9.52;6.38;;;;;;;15.59;87.07;94824.44;5131623;28;20185;-74
2022/09/09 01:14:36;;;;;;;10.52;7.40;;;;;;;15.74;86.52;94820.09;5130976;28;20228;-74
2022/09/09 01:17:14;;;;;;;9.73;6.82;;;;;;;15.79;86.53;94812.44;5131531;28;20188;-73
2022/09/09 01:19:51;;;;;;;12.18;6.55;;;;;;;15.86;85.90;94817.25;5131564;28;20236;-73
2022/09/09 01:22:27;;;;;;;9.75;6.20;;;;;;;15.81;86.03;94820.28;5131476;28;20628;-74
2022/09/09 01:25:15;;;;;;;8.35;6.22;;;;;;;15.88;85.90;94818.50;5130846;28;20531;-74
2022/09/09 01:27:45;;;;;;;9.98;6.70;;;;;;;15.85;85.52;94804.78;5111063;28;20280;-74
2022/09/09 01:30:14;;;;;;;10.20;6.88;;;;;;;15.86;86.00;94803.59;5109970;28;20209;-74
2022/09/09 01:32:44;;;;;;;11.18;6.68;;;;;;;15.91;85.24;94804.13;5110789;28;20225;-73
2022/09/09 01:35:16;;;;;;;11.70;7.32;;;;;;;15.97;85.18;94810.13;5113570;28;20237;-73
2022/09/09 01:37:43;;;;;;;10.52;6.65;;;;;;;15.90;85.21;94818.16;5114343;28;20232;-73
2022/09/09 01:40:10;;;;;;;9.23;6.85;;;;;;;15.95;85.40;94826.06;5114695;28;20209;-73
2022/09/09 01:42:37;;;;;;;9.52;6.68;;;;;;;16.00;85.31;94823.03;5114861;28;20208;-73
2022/09/09 01:45:07;;;;;;;9.95;6.47;;;;;;;15.97;85.18;94823.78;5114379;28;20671;-73
2022/09/09 01:47:33;;;;;;;10.82;7.00;;;;;;;15.96;85.58;94833.13;5114479;28;20257;-73
2022/09/09 01:50:02;;;;;;;8.80;6.70;;;;;;;15.95;85.82;94826.06;5113535;28;20689;-74
2022/09/09 01:52:30;;;;;;;8.63;6.53;;;;;;;16.04;85.49;94834.84;5114018;28;20293;-73
2022/09/09 01:54:57;;;;;;;9.10;6.60;;;;;;;16.01;85.36;94838.28;5113753;28;20225;-73
2022/09/09 01:57:29;;;;;;;9.45;7.07;;;;;;;16.04;85.52;94834.84;5113455;28;20632;-73
2022/09/09 02:00:07;;;;;;;12.40;7.35;;;;;;;16.08;84.70;94841.19;5114037;28;20186;-73
2022/09/09 02:02:40;;;;;;;12.85;6.97;;;;;;;16.08;85.17;94834.94;5114141;28;20663;-74
2022/09/09 02:05:18;;;;;;;9.63;7.55;;;;;;;16.05;85.25;94836.44;5114240;28;20598;-73
2022/09/09 02:07:48;;;;;;;16.80;7.65;;;;;;;16.21;84.65;94834.47;5113788;28;20200;-73
2022/09/09 02:10:22;;;;;;;11.73;6.22;;;;;;;16.09;84.87;94826.38;5113239;28;20697;-73
2022/09/09 02:12:56;;;;;;;12.15;7.07;;;;;;;15.96;85.61;94838.59;5113233;28;20764;-73
2022/09/09 02:15:31;;;;;;;9.52;6.82;;;;;;;15.89;85.81;94833.75;5113408;28;20210;-73
2022/09/09 02:18:02;;;;;;;10.40;6.63;;;;;;;15.86;86.19;94817.25;5114296;28;20190;-73
2022/09/09 02:20:33;;;;;;;9.75;7.07;;;;;;;15.78;86.02;94810.84;5113777;28;20197;-74
2022/09/09 02:23:01;;;;;;;14.05;7.25;;;;;;;15.72;86.96;94800.56;5113747;28;20190;-74
2022/09/09 02:25:30;;;;;;;13.88;6.97;;;;;;;15.72;86.74;94811.47;5117722;27;20249;-73
2022/09/09 02:27:58;;;;;;;10.20;7.57;;;;;;;15.70;87.08;94814.59;5133931;27;20744;-73
2022/09/09 02:30:26;;;;;;;7.93;6.20;;;;;;;15.72;86.85;94816.94;5134059;27;20304;-74
2022/09/09 02:32:56;;;;;;;9.65;6.97;;;;;;;15.72;86.59;94819.66;5133930;27;20221;-74
2022/09/09 02:35:26;;;;;;;8.45;7.00;;;;;;;15.74;86.48;94820.91;5133890;27;20699;-74
2022/09/09 02:37:59;;;;;;;10.18;7.38;;;;;;;15.74;86.33;94825.56;5134054;27;20236;-74
2022/09/09 02:40:25;;;;;;;12.30;7.25;;;;;;;15.66;86.66;94808.25;5133559;27;20220;-74
2022/09/09 02:42:55;;;;;;;11.57;7.50;;;;;;;15.58;86.55;94829.13;5134589;27;20234;-74
2022/09/09 02:45:25;;;;;;;11.27;6.93;;;;;;;15.58;86.98;94829.13;5133143;27;20204;-74
2022/09/09 02:48:00;;;;;;;10.15;7.88;;;;;;;15.47;87.43;94838.16;5134643;27;20205;-74
2022/09/09 02:50:34;;;;;;;10.05;7.25;;;;;;;15.41;87.78;94845.84;5133620;27;20189;-74
2022/09/09 02:53:09;;;;;;;9.63;6.97;;;;;;;15.29;88.46;94843.22;5134312;27;20193;-74
2022/09/09 02:55:42;;;;;;;13.25;7.18;;;;;;;15.29;88.58;94844.00;5133892;27;20582;-74
2022/09/09 02:58:12;;;;;;;9.98;7.28;;;;;;;15.34;88.53;94840.19;5132659;27;20585;-74
2022/09/09 03:00:40;;;;;;;15.80;6.40;;;;;;;15.39;88.48;94830.97;5133464;27;20272;-73
2022/09/09 03:03:08;;;;;;;10.95;7.28;;;;;;;15.45;88.22;94835.78;5133583;27;20192;-73
2022/09/09 03:05:37;;;;;;;11.73;7.13;;;;;;;15.43;88.22;94834.59;5133636;27;20203;-73
2022/09/09 03:08:05;;;;;;;11.02;6.90;;;;;;;15.51;87.86;94831.66;5133583;27;20205;-73
2022/09/09 03:10:32;;;;;;;11.48;6.93;;;;;;;15.58;87.43;94834.56;5133021;27;20205;-74
2022/09/09 03:12:59;;;;;;;12.48;7.25;;;;;;;15.53;87.69;94842.22;5133394;27;20274;-73
2022/09/09 03:15:28;;;;;;;11.57;7.05;;;;;;;15.46;87.98;94842.84;5133003;27;20564;-73
2022/09/09 03:17:56;;;;;;;11.45;7.22;;;;;;;15.50;87.85;94838.25;5132943;27;20200;-73
2022/09/09 03:20:23;;;;;;;10.75;7.47;;;;;;;15.49;87.95;94844.88;5132316;27;20290;-73
2022/09/09 03:22:51;;;;;;;11.63;7.90;;;;;;;15.43;87.97;94843.56;5132978;27;20197;-74
2022/09/09 03:25:18;;;;;;;10.07;6.82;;;;;;;15.45;87.93;94835.00;5132980;27;20201;-74
2022/09/09 03:27:45;;;;;;;12.45;7.10;;;;;;;15.48;87.59;94834.28;5132833;27;20236;-74
2022/09/09 03:30:13;;;;;;;12.07;7.45;;;;;;;15.48;88.03;94840.56;5132946;27;20205;-73
2022/09/09 03:32:40;;;;;;;10.38;7.43;;;;;;;15.52;88.01;94841.44;5133007;27;20217;-74
2022/09/09 03:35:08;;;;;;;11.20;8.00;;;;;;;15.44;88.17;94834.22;5131910;27;20197;-74
2022/09/09 03:37:35;;;;;;;12.48;7.93;;;;;;;15.57;87.74;94838.47;5133447;27;20201;-74
2022/09/09 03:40:05;;;;;;;11.10;8.05;;;;;;;15.61;87.46;94833.88;5132843;27;20197;-74
2022/09/09 03:42:32;;;;;;;10.10;7.38;;;;;;;15.42;88.37;94833.78;5133158;27;20234;-74
2022/09/09 03:44:59;;;;;;;10.48;7.20;;;;;;;15.39;88.58;94831.75;5132838;27;20443;-74
2022/09/09 03:47:26;;;;;;;11.32;7.68;;;;;;;15.39;88.08;94837.22;5132786;27;20262;-74
2022/09/09 03:49:53;;;;;;;11.50;8.13;;;;;;;15.36;88.43;94835.19;5132805;27;20283;-74
2022/09/09 03:52:21;;;;;;;16.90;8.88;;;;;;;15.55;87.93;94835.31;5132586;27;20201;-74
2022/09/09 03:54:48;;;;;;;13.00;9.05;;;;;;;15.53;88.00;94832.09;5132880;27;20720;-74
2022/09/09 03:57:16;;;;;;;11.82;8.45;;;;;;;15.52;88.37;94846.09;5131809;27;20591;-74
2022/09/09 03:59:43;;;;;;;13.40;8.32;;;;;;;15.45;88.48;94841.25;5132047;27;20205;-74
2022/09/09 04:02:10;;;;;;;12.40;8.32;;;;;;;15.49;88.47;94836.69;5132727;27;20197;-74
2022/09/09 04:04:37;;;;;;;14.82;8.60;;;;;;;15.37;88.72;94842.22;5132326;27;20208;-74
2022/09/09 04:07:06;;;;;;;12.52;8.18;;;;;;;15.39;88.90;94847.34;5132690;27;20197;-74
2022/09/09 04:09:32;;;;;;;13.73;8.15;;;;;;;15.49;88.16;94852.25;5132286;27;20628;-74
2022/09/09 04:11:59;;;;;;;16.98;8.45;;;;;;;15.67;87.92;94847.28;5132146;27;20208;-74
2022/09/09 04:14:28;;;;;;;14.77;8.27;;;;;;;15.86;86.98;94850.84;5132064;27;20293;-73
2022/09/09 04:16:58;;;;;;;15.70;8.77;;;;;;;16.31;86.21;94841.28;5131532;27;20231;-73
2022/09/09 04:19:24;;;;;;;12.65;8.30;;;;;;;16.72;84.29;94828.88;5131559;27;20308;-73
2022/09/09 04:21:51;;;;;;;16.75;8.52;;;;;;;17.18;82.37;94823.47;5132054;27;20324;-73
2022/09/09 04:24:19;;;;;;;13.65;7.85;;;;;;;17.60;79.76;94821.44;5131601;27;20413;-73
2022/09/09 04:26:47;;;;;;;12.48;7.75;;;;;;;18.02;78.10;94828.75;5132190;27;20197;-74
2022/09/09 04:29:13;;;;;;;13.43;8.43;;;;;;;18.54;75.63;94825.16;5131657;27;20211;-74
2022/09/09 04:31:41;;;;;;;12.73;8.32;;;;;;;18.72;76.00;94825.41;5132199;27;20197;-74
2022/09/09 04:34:09;;;;;;;16.63;8.93;;;;;;;19.48;73.33;94825.78;5132420;27;20213;-74
2022/09/09 04:36:36;;;;;;;10.50;7.45;;;;;;;20.13;70.09;94814.91;5131525;27;20225;-74
2022/09/09 04:39:03;;;;;;;13.95;7.47;;;;;;;20.19;69.26;94831.84;5131812;27;20201;-74
2022/09/09 04:41:31;;;;;;;16.55;7.75;;;;;;;20.56;67.76;94832.47;5132152;27;20208;-74
2022/09/09 04:43:58;;;;;;;13.32;7.40;;;;;;;21.08;65.19;94829.50;5131365;27;20197;-74
2022/09/09 04:46:25;;;;;;;9.65;7.45;;;;;;;20.65;65.56;94845.06;5131786;27;20205;-74
2022/09/09 04:48:54;;;;;;;12.57;6.72;;;;;;;19.95;67.54;94847.00;5131602;27;20253;-74
2022/09/09 04:51:21;;;;;;;12.50;7.90;;;;;;;19.38;69.68;94829.22;5132073;27;20254;-73
2022/09/09 04:53:48;;;;;;;13.77;10.10;;;;;;;19.09;71.24;94823.47;5131788;27;20201;-75
2022/09/09 04:56:17;;;;;;;12.23;9.57;;;;;;;19.38;71.19;94819.03;5131806;27;20221;-73
2022/09/09 04:58:45;;;;;;;10.65;8.40;;;;;;;20.27;68.99;94814.19;5131799;27;20233;-74
2022/09/09 05:01:13;;;;;;;13.82;8.23;;;;;;;21.72;65.16;94802.06;5131293;27;20197;-74
2022/09/09 05:03:40;;;;;;;16.90;7.97;;;;;;;22.53;62.36;94796.41;5131683;27;20200;-74
2022/09/09 05:06:10;;;;;;;12.70;9.05;;;;;;;23.13;59.97;94795.34;5131882;27;20209;-73
2022/09/09 05:08:38;;;;;;;13.88;8.55;;;;;;;24.06;56.83;94779.63;5130992;27;20201;-74
2022/09/09 05:11:12;;;;;;;12.27;9.60;;;;;;;24.70;54.47;94767.91;5131795;27;20205;-73
2022/09/09 05:13:40;;;;;;;14.90;10.18;;;;;;;24.42;54.63;94779.31;5130737;28;20759;-75
2022/09/09 05:16:07;;;;;;;15.60;10.70;;;;;;;24.69;53.94;94784.94;5131608;28;20277;-74
2022/09/09 05:18:33;;;;;;;16.23;11.05;;;;;;;24.78;54.03;94799.06;5131082;28;20246;-74
2022/09/09 05:21:01;;;;;;;20.20;10.50;;;;;;;23.62;56.37;94799.03;5131190;28;20204;-74
2022/09/09 05:23:29;;;;;;;11.07;9.73;;;;;;;24.13;55.32;94786.31;5131254;28;20199;-74
2022/09/09 05:25:58;;;;;;;16.13;9.68;;;;;;;23.99;56.56;94779.72;5130905;28;20538;-73
2022/09/09 05:28:25;;;;;;;15.32;9.82;;;;;;;25.47;52.34;94772.81;5131183;28;20208;-73
2022/09/09 05:31:00;;;;;;;13.43;9.85;;;;;;;25.87;51.72;94779.31;5130694;28;20287;-73
2022/09/09 05:33:27;;;;;;;12.48;9.57;;;;;;;25.79;50.57;94780.66;5131268;28;20212;-73
2022/09/09 05:36:02;;;;;;;13.52;10.00;;;;;;;26.79;48.64;94777.63;5131085;28;20200;-73
2022/09/09 05:38:32;;;;;;;11.40;8.73;;;;;;;26.18;50.01;94779.97;5130923;28;20197;-73
2022/09/09 05:40:59;;;;;;;16.52;8.93;;;;;;;26.23;49.13;94776.72;5131258;28;20257;-73
2022/09/09 05:43:27;;;;;;;12.15;9.05;;;;;;;27.10;47.88;94777.41;5131039;28;20249;-73
2022/09/09 05:46:05;;;;;;;12.32;8.18;;;;;;;25.73;49.79;94783.13;5130459;28;20225;-73
2022/09/09 05:48:33;;;;;;;12.98;8.50;;;;;;;27.45;47.29;94787.75;5130460;28;20280;-72
2022/09/09 05:51:00;;;;;;;13.55;8.43;;;;;;;26.45;48.79;94802.13;5130657;28;20200;-73
2022/09/09 05:53:28;;;;;;;8.77;7.45;;;;;;;27.64;45.69;94788.16;5131182;28;20201;-73
2022/09/09 05:56:04;;;;;;;11.40;7.97;;;;;;;28.80;43.01;94773.25;5131237;28;20201;-74
2022/09/09 05:58:32;;;;;;;9.98;7.63;;;;;;;28.21;42.97;94785.56;5131318;28;20274;-73
2022/09/09 06:01:03;;;;;;;10.52;7.82;;;;;;;28.51;42.93;94791.94;5130823;28;20563;-74
2022/09/09 06:03:30;;;;;;;15.40;7.75;;;;;;;29.59;40.69;94788.44;5130191;28;20738;-74
2022/09/09 06:06:01;;;;;;;11.57;7.25;;;;;;;28.16;42.61;94802.75;5130449;28;20535;-72
2022/09/09 06:08:28;;;;;;;9.27;6.60;;;;;;;27.54;43.84;94807.41;5130816;28;20254;-73
2022/09/09 06:11:02;;;;;;;8.68;6.65;;;;;;;27.73;43.29;94808.63;5130782;28;20704;-72
2022/09/09 06:13:31;;;;;;;8.02;6.70;;;;;;;29.03;41.07;94810.44;5130960;28;20232;-74
2022/09/09 06:15:58;;;;;;;8.90;6.40;;;;;;;29.14;40.72;94802.53;5130709;28;20229;-73
2022/09/09 06:18:25;;;;;;;9.43;6.20;;;;;;;30.09;38.96;94792.44;5130770;28;20395;-73
2022/09/09 06:21:00;;;;;;;9.40;6.65;;;;;;;30.69;37.73;94790.41;5132753;27;20215;-74
2022/09/09 06:23:28;;;;;;;9.68;6.05;;;;;;;29.64;38.72;94801.88;5134318;27;20191;-74
2022/09/09 06:26:05;;;;;;;8.88;6.20;;;;;;;29.86;39.43;94797.16;5134556;27;20711;-73
2022/09/09 06:28:33;;;;;;;8.52;6.18;;;;;;;30.49;38.19;94787.88;5134417;27;20188;-73
2022/09/09 06:31:00;;;;;;;7.75;6.30;;;;;;;29.63;38.63;94800.28;5134628;27;20197;-74
2022/09/09 06:33:28;;;;;;;12.30;7.10;;;;;;;29.29;39.71;94803.69;5134176;27;20228;-73
2022/09/09 06:35:56;;;;;;;9.07;6.60;;;;;;;29.92;38.40;94797.38;5134341;27;20366;-72
2022/09/09 06:38:24;;;;;;;11.00;6.90;;;;;;;30.33;38.03;94791.63;5134574;27;20284;-73
2022/09/09 06:40:55;;;;;;;10.07;6.60;;;;;;;30.78;37.06;94782.06;5133579;27;20203;-72
2022/09/09 06:43:22;;;;;;;7.60;6.47;;;;;;;29.79;38.94;94786.22;5134730;27;20228;-73
2022/09/09 06:45:56;;;;;;;8.98;7.45;;;;;;;29.92;38.53;94784.19;5134007;27;20232;-73
2022/09/09 06:48:23;;;;;;;8.40;6.03;;;;;;;29.58;38.62;94782.09;5133656;27;20185;-72
2022/09/09 06:50:50;;;;;;;9.23;6.70;;;;;;;29.45;38.42;94797.25;5134083;27;20197;-72
2022/09/09 06:53:18;;;;;;;10.60;6.55;;;;;;;29.06;39.42;94806.78;5133836;27;20296;-72
2022/09/09 06:55:46;;;;;;;9.88;7.07;;;;;;;30.23;38.63;94798.34;5134099;27;20201;-72
2022/09/09 06:58:13;;;;;;;10.57;6.68;;;;;;;31.06;36.72;94800.63;5133620;27;20282;-73
2022/09/09 07:00:39;;;;;;;9.18;6.60;;;;;;;30.43;38.03;94805.69;5133627;27;20749;-73
2022/09/09 07:03:08;;;;;;;11.38;5.90;;;;;;;30.07;37.98;94801.28;5133258;27;20193;-73
2022/09/09 07:05:35;;;;;;;7.95;6.32;;;;;;;29.74;39.38;94805.53;5133802;27;20200;-72
2022/09/09 07:08:02;;;;;;;9.18;6.38;;;;;;;29.03;39.11;94813.22;5132946;27;20291;-72
2022/09/09 07:10:29;;;;;;;12.48;6.80;;;;;;;28.46;41.02;94817.56;5132477;27;20254;-73
2022/09/09 07:12:56;;;;;;;10.88;6.43;;;;;;;28.10;41.98;94815.66;5132017;27;20765;-73
2022/09/09 07:15:23;;;;;;;8.02;6.97;;;;;;;28.70;40.58;94810.53;5133163;27;20193;-73
2022/09/09 07:17:50;;;;;;;10.80;6.70;;;;;;;28.62;40.03;94806.38;5132861;27;20237;-72
2022/09/09 07:20:19;;;;;;;9.13;6.47;;;;;;;29.14;40.27;94802.53;5133529;27;20197;-73
2022/09/09 07:22:46;;;;;;;17.35;6.72;;;;;;;29.22;40.38;94798.34;5133552;27;20197;-72
2022/09/09 07:25:14;;;;;;;9.45;6.55;;;;;;;29.32;40.25;94798.00;5133296;27;20258;-72
2022/09/09 07:27:41;;;;;;;12.85;6.95;;;;;;;29.05;41.41;94800.41;5133237;27;20287;-72
2022/09/09 07:30:09;;;;;;;10.07;7.82;;;;;;;28.18;41.64;94800.34;5133420;27;20201;-72
2022/09/09 07:32:35;;;;;;;11.27;7.47;;;;;;;27.58;42.59;94801.81;5133543;27;20699;-72
2022/09/09 07:35:02;;;;;;;12.20;6.95;;;;;;;27.18;43.62;94790.75;5132919;27;20246;-72
2022/09/09 07:37:31;;;;;;;10.20;7.32;;;;;;;27.08;44.51;94786.19;5132995;27;20798;-73
2022/09/09 07:39:58;;;;;;;11.57;7.38;;;;;;;26.82;44.22;94787.88;5133033;27;20261;-73
2022/09/09 07:42:25;;;;;;;16.05;7.93;;;;;;;26.05;45.78;94799.25;5132689;27;20291;-73
2022/09/09 07:44:54;;;;;;;8.32;7.43;;;;;;;26.99;44.44;94804.66;5133044;27;20201;-73
2022/09/09 07:47:21;;;;;;;13.60;7.75;;;;;;;26.34;45.22;94812.66;5133142;27;20205;-72
2022/09/09 07:49:49;;;;;;;13.20;7.30;;;;;;;26.57;44.82;94812.63;5132318;27;20197;-73
2022/09/09 07:52:16;;;;;;;9.93;7.20;;;;;;;26.74;44.95;94811.50;5132974;27;20209;-73
2022/09/09 07:54:45;;;;;;;8.85;7.53;;;;;;;27.08;44.71;94804.88;5132764;27;20197;-73
2022/09/09 07:57:12;;;;;;;11.75;6.90;;;;;;;27.87;42.79;94802.72;5132259;27;20587;-73
2022/09/09 07:59:39;;;;;;;9.93;6.85;;;;;;;27.79;42.68;94789.38;5132073;27;20577;-72
2022/09/09 08:02:06;;;;;;;11.02;6.55;;;;;;;27.04;44.44;94807.75;5132960;27;20196;-72
2022/09/09 08:04:33;;;;;;;10.80;7.43;;;;;;;26.31;45.67;94799.63;5132009;27;20212;-73
2022/09/09 08:07:02;;;;;;;13.20;6.53;;;;;;;26.70;45.62;94799.66;5132859;27;20258;-73
2022/09/09 08:09:29;;;;;;;13.45;6.68;;;;;;;26.63;44.70;94805.38;5132829;27;20200;-73
2022/09/09 08:11:58;;;;;;;9.70;6.35;;;;;;;26.39;45.05;94806.59;5132734;27;20210;-72
2022/09/09 08:14:25;;;;;;;8.45;6.15;;;;;;;27.20;43.76;94799.44;5131938;27;20232;-74
2022/09/09 08:16:53;;;;;;;9.40;6.10;;;;;;;27.56;42.96;94796.69;5132005;27;20284;-73
2022/09/09 08:19:20;;;;;;;8.10;6.32;;;;;;;27.52;42.80;94797.94;5131443;27;20589;-72
2022/09/09 08:21:48;;;;;;;11.57;5.72;;;;;;;27.35;42.81;94791.56;5131879;27;20608;-72
2022/09/09 08:24:15;;;;;;;10.52;6.25;;;;;;;27.79;42.59;94794.94;5132011;27;20644;-72
2022/09/09 08:26:43;;;;;;;7.03;5.85;;;;;;;28.13;42.49;94792.50;5132330;27;20189;-73
2022/09/09 08:29:13;;;;;;;9.32;5.72;;;;;;;28.34;43.12;94793.19;5131865;27;20201;-73
2022/09/09 08:31:43;;;;;;;8.10;5.88;;;;;;;27.67;42.42;94792.84;5131565;27;20196;-72
2022/09/09 08:34:10;;;;;;;8.98;5.43;;;;;;;27.17;42.79;94786.41;5131407;27;20287;-73
2022/09/09 08:36:40;;;;;;;7.93;5.80;;;;;;;27.31;42.64;94785.31;5131514;27;20197;-72
2022/09/09 08:39:08;;;;;;;8.52;5.60;;;;;;;27.19;43.46;94791.53;5131861;27;20197;-72
2022/09/09 08:42:00;;;;;;;12.20;5.68;;;;;;;26.71;43.37;94801.22;5131661;27;20204;-72
2022/09/09 08:44:41;;;;;;;6.13;5.32;;;;;;;26.30;44.32;94798.03;5130861;27;20193;-73
2022/09/09 08:47:21;;;;;;;8.07;5.35;;;;;;;27.07;44.12;94787.41;5132199;27;20184;-73
2022/09/09 08:50:06;;;;;;;10.98;5.88;;;;;;;27.07;44.16;94781.03;5131517;27;20189;-73
2022/09/09 08:52:40;;;;;;;8.85;5.88;;;;;;;27.28;43.78;94783.38;5132252;27;20213;-74
2022/09/09 08:55:21;;;;;;;11.60;5.38;;;;;;;27.43;45.11;94795.75;5131423;27;20562;-73
2022/09/09 08:57:51;;;;;;;9.73;5.68;;;;;;;27.22;43.47;94782.31;5131768;27;20654;-72
2022/09/09 09:00:19;;;;;;;9.02;5.70;;;;;;;27.29;43.00;94782.16;5131492;27;20236;-73
2022/09/09 09:02:54;;;;;;;7.72;5.93;;;;;;;27.34;42.31;94787.19;5132047;27;20205;-73
2022/09/09 09:05:29;;;;;;;8.48;5.18;;;;;;;26.83;42.96;94786.69;5131188;27;20245;-73
2022/09/09 09:08:03;;;;;;;8.18;5.38;;;;;;;27.22;43.18;94785.09;5131945;27;20245;-72
2022/09/09 09:10:46;;;;;;;7.78;5.50;;;;;;;27.94;41.52;94785.03;5131340;27;20252;-72
2022/09/09 09:13:16;;;;;;;8.30;5.55;;;;;;;28.03;42.00;94787.97;5131290;27;20232;-73
2022/09/09 09:15:48;;;;;;;8.15;5.43;;;;;;;28.53;40.65;94787.50;5131292;28;20268;-73
2022/09/09 09:18:16;;;;;;;8.93;5.47;;;;;;;28.40;40.69;94791.44;5131381;28;20687;-73
2022/09/09 09:20:51;;;;;;;9.20;5.70;;;;;;;27.53;42.18;94789.16;5131487;28;20284;-73
2022/09/09 09:23:23;;;;;;;9.13;5.57;;;;;;;28.03;41.42;94782.41;5130773;28;20199;-74
2022/09/09 09:25:53;;;;;;;6.80;5.35;;;;;;;28.36;41.48;94785.19;5130879;28;20644;-74
2022/09/09 09:28:24;;;;;;;8.40;5.28;;;;;;;27.93;40.83;94773.09;5131334;28;20728;-74
2022/09/09 09:30:57;;;;;;;11.45;6.03;;;;;;;28.74;39.75;94772.16;5131352;28;20272;-73
2022/09/09 09:33:29;;;;;;;7.65;5.22;;;;;;;29.00;39.66;94779.41;5131848;28;20212;-74
2022/09/09 09:35:55;;;;;;;7.38;5.35;;;;;;;29.05;40.23;94777.31;5130466;28;20189;-74
2022/09/09 09:38:24;;;;;;;5.72;5.10;;;;;;;28.96;40.25;94781.53;5131328;28;20278;-74
2022/09/09 09:40:54;;;;;;;9.50;5.80;;;;;;;28.54;40.13;94771.56;5130952;28;20272;-74
2022/09/09 09:43:24;;;;;;;6.55;5.05;;;;;;;29.02;39.85;94772.59;5131304;28;20283;-74
2022/09/09 09:45:53;;;;;;;9.45;5.55;;;;;;;28.61;39.24;94760.19;5130924;28;20197;-74
2022/09/09 09:48:20;;;;;;;8.98;5.32;;;;;;;28.89;39.45;94753.84;5131485;28;20253;-74
2022/09/09 09:50:52;;;;;;;6.95;5.88;;;;;;;28.66;40.45;94759.66;5130898;28;20203;-74
2022/09/09 09:53:24;;;;;;;9.57;5.68;;;;;;;28.28;41.70;94760.31;5130877;28;20203;-73
2022/09/09 09:55:56;;;;;;;11.75;5.22;;;;;;;27.81;41.65;94750.75;5133111;27;20272;-73
2022/09/09 09:58:24;;;;;;;6.30;5.22;;;;;;;28.16;41.71;94752.59;5135233;27;20233;-73
2022/09/09 10:00:53;;;;;;;7.80;5.55;;;;;;;28.50;41.28;94748.56;5135188;27;20299;-74
2022/09/09 10:03:24;;;;;;;13.77;9.43;;;;;;;29.27;39.08;94739.16;5135193;27;20201;-74
2022/09/09 10:05:51;;;;;;;9.68;5.53;;;;;;;29.37;40.57;94743.63;5134908;27;20199;-73
2022/09/09 10:08:19;;;;;;;8.40;5.80;;;;;;;29.94;38.44;94747.41;5134323;27;20193;-72
2022/09/09 10:11:00;;;;;;;7.50;5.00;;;;;;;30.17;37.53;94743.47;5134470;27;20651;-73
2022/09/09 10:13:37;;;;;;;11.77;9.48;;;;;;;29.53;38.75;94751.91;5134543;27;20232;-73
2022/09/09 10:16:21;;;;;;;9.38;6.50;;;;;;;29.73;37.96;94745.31;5135124;27;20590;-74
2022/09/09 10:18:59;;;;;;;10.68;6.95;;;;;;;29.33;38.68;94760.50;5134494;27;20236;-73
2022/09/09 10:21:44;;;;;;;8.68;5.80;;;;;;;28.27;40.71;94769.88;5134446;27;20192;-74
2022/09/09 10:24:41;;;;;;;10.30;5.07;;;;;;;27.71;42.68;94771.28;5134271;27;20656;-74
2022/09/09 10:27:16;;;;;;;8.20;5.45;;;;;;;27.16;43.83;94772.91;5134604;27;20212;-73
2022/09/09 10:30:10;;;;;;;9.77;5.88;;;;;;;26.55;45.30;94773.34;5134549;27;20323;-74
2022/09/09 10:32:42;;;;;;;9.20;5.25;;;;;;;26.49;44.61;94769.50;5134749;27;20301;-74
2022/09/09 10:35:15;;;;;;;12.02;5.70;;;;;;;26.66;45.11;94770.34;5134696;27;20185;-73
2022/09/09 10:38:15;;;;;;;9.05;5.85;;;;;;;26.71;44.12;94762.31;5133665;27;20699;-74
2022/09/09 10:40:52;;;;;;;9.18;5.75;;;;;;;26.59;45.29;94771.28;5134598;27;20261;-74
2022/09/09 10:43:40;;;;;;;10.90;5.60;;;;;;;26.36;45.83;94768.56;5134788;27;20278;-73
2022/09/09 10:46:14;;;;;;;6.90;5.25;;;;;;;26.51;45.52;94772.66;5133834;27;20189;-74
2022/09/09 10:48:54;;;;;;;9.73;5.50;;;;;;;26.33;45.92;94774.97;5133564;27;20240;-74
2022/09/09 10:51:34;;;;;;;7.65;5.60;;;;;;;26.32;46.43;94774.19;5133902;27;20189;-74
2022/09/09 10:54:25;;;;;;;9.35;6.00;;;;;;;26.14;47.15;94771.69;5134095;27;20249;-73
2022/09/09 10:56:58;;;;;;;10.07;6.40;;;;;;;26.53;45.83;94772.97;5133633;27;20181;-74
2022/09/09 10:59:27;;;;;;;8.27;6.00;;;;;;;26.89;45.08;94762.72;5133822;27;20281;-74
2022/09/09 11:01:59;;;;;;;10.15;6.35;;;;;;;27.02;44.66;94770.44;5132928;27;20292;-74
2022/09/09 11:04:34;;;;;;;8.73;6.03;;;;;;;26.14;47.08;94762.59;5133062;27;20249;-73
2022/09/09 11:07:06;;;;;;;11.10;6.55;;;;;;;26.24;47.60;94777.50;5133557;27;20185;-73
2022/09/09 11:09:43;;;;;;;8.43;6.18;;;;;;;26.01;47.53;94776.31;5133205;27;20225;-73
2022/09/09 11:12:16;;;;;;;9.25;6.57;;;;;;;26.35;47.26;94772.56;5133693;27;20192;-73
2022/09/09 11:14:46;;;;;;;7.32;6.28;;;;;;;26.47;47.00;94774.72;5133431;27;20269;-73
2022/09/09 11:17:18;;;;;;;11.68;6.63;;;;;;;26.69;47.18;94769.50;5133598;27;20691;-73
2022/09/09 11:19:46;;;;;;;10.95;7.07;;;;;;;26.52;46.24;94765.84;5133270;27;20527;-74
2022/09/09 11:22:27;;;;;;;11.10;6.72;;;;;;;26.92;46.37;94761.84;5133369;27;20204;-74
2022/09/09 11:24:57;;;;;;;12.15;6.43;;;;;;;27.39;45.12;94750.53;5133511;27;20189;-73
2022/09/09 11:27:28;;;;;;;10.70;6.65;;;;;;;27.55;44.64;94744.97;5132899;27;20185;-74
2022/09/09 11:30:17;;;;;;;11.50;7.00;;;;;;;27.80;43.63;94746.38;5133647;27;20193;-74
2022/09/09 11:33:27;;;;;;;11.35;7.53;;;;;;;27.31;45.01;94738.00;5133459;27;20278;-74
2022/09/09 11:36:14;;;;;;;12.13;7.55;;;;;;;27.61;44.78;94728.53;5133227;27;20253;-73
2022/09/09 11:38:46;;;;;;;10.20;7.25;;;;;;;27.19;45.35;94719.22;5132803;27;20766;-74
2022/09/09 11:41:15;;;;;;;10.27;7.13;;;;;;;27.04;46.17;94718.75;5133129;27;20190;-73
2022/09/09 11:43:44;;;;;;;10.30;7.30;;;;;;;27.56;45.70;94726.31;5133279;27;20306;-74
2022/09/09 11:46:15;;;;;;;11.18;7.25;;;;;;;27.64;45.28;94715.75;5133089;27;20193;-74
2022/09/09 11:48:45;;;;;;;9.88;6.95;;;;;;;27.74;45.27;94695.25;5132929;27;20607;-74